createdAt,value
2024-02-03T00:01:51.688Z,98239.44
2024-02-03T00:04:18.715Z,98222.66
2024-02-03T00:06:45.785Z,98233.53
2024-02-03T00:09:12.803Z,98238.69
2024-02-03T00:11:40.009Z,98233.88
2024-02-03T00:14:07.140Z,98230.13
2024-02-03T00:16:34.041Z,98230.97
2024-02-03T00:19:01.026Z,98214.34
2024-02-03T00:21:27.973Z,98208.50
2024-02-03T00:23:54.899Z,98205.75
2024-02-03T00:26:21.847Z,98199.88
2024-02-03T00:28:50.916Z,98195.75
2024-02-03T00:31:17.903Z,98194.94
2024-02-03T00:33:44.938Z,98185.38
2024-02-03T00:36:24.712Z,98170.91
2024-02-03T00:38:51.608Z,98167.31
2024-02-03T00:41:18.796Z,98179.44
2024-02-03T00:43:45.670Z,98155.75
2024-02-03T00:46:12.802Z,98177.06
2024-02-03T00:48:40.004Z,98170.44
2024-02-03T00:51:11.043Z,98167.97
2024-02-03T00:53:38.050Z,98177.41
2024-02-03T00:56:05.570Z,98183.31
2024-02-03T00:58:32.559Z,98185.59
2024-02-03T01:00:59.629Z,98186.78
2024-02-03T01:03:26.652Z,98184.22
2024-02-03T01:05:53.992Z,98176.72
2024-02-03T01:08:21.171Z,98162.03
2024-02-03T01:10:48.356Z,98175.38
2024-02-03T01:13:15.472Z,98170.34
2024-02-03T01:15:42.364Z,98152.34
2024-02-03T01:18:09.413Z,98151.47
2024-02-03T01:20:36.419Z,98181.50
2024-02-03T01:23:03.329Z,98163.19
2024-02-03T01:25:30.189Z,98150.25
2024-02-03T01:27:57.049Z,98161.81
2024-02-03T01:30:23.917Z,98150.97
2024-02-03T01:32:50.818Z,98151.81
2024-02-03T01:35:17.714Z,98160.44
2024-02-03T01:37:44.602Z,98159.56
2024-02-03T01:40:14.116Z,98175.59
2024-02-03T01:42:41.155Z,98169.81
2024-02-03T01:45:08.581Z,98169.94
2024-02-03T01:47:35.712Z,98172.66
2024-02-03T01:50:05.617Z,98170.00
2024-02-03T01:52:34.022Z,98173.19
2024-02-03T01:55:00.949Z,98160.78
2024-02-03T01:57:30.942Z,98154.88
2024-02-03T01:59:58.188Z,98159.31
2024-02-03T02:02:25.244Z,98161.56
2024-02-03T02:04:52.213Z,98148.34
2024-02-03T02:07:21.753Z,98150.25
2024-02-03T02:09:49.440Z,98145.91
2024-02-03T02:12:16.437Z,98149.34
2024-02-03T02:14:43.403Z,98144.97
2024-02-03T02:17:10.277Z,98140.59
2024-02-03T02:19:37.286Z,98143.13
2024-02-03T02:22:04.438Z,98130.75
2024-02-03T02:24:31.287Z,98121.69
2024-02-03T02:26:58.214Z,98123.09
2024-02-03T02:29:25.084Z,98115.91
2024-02-03T02:31:52.356Z,98134.88
2024-02-03T02:34:19.269Z,98132.91
2024-02-03T02:36:46.519Z,98144.16
2024-02-03T02:39:13.465Z,98150.19
2024-02-03T02:41:40.348Z,98145.75
2024-02-03T02:44:07.196Z,98154.63
2024-02-03T02:46:34.395Z,98150.69
2024-02-03T02:49:03.006Z,98150.13
2024-02-03T02:51:30.050Z,98156.25
2024-02-03T02:53:56.910Z,98153.28
2024-02-03T02:56:23.781Z,98155.97
2024-02-03T02:58:50.637Z,98154.41
2024-02-03T03:01:20.489Z,98148.50
2024-02-03T03:03:47.597Z,98150.28
2024-02-03T03:06:14.832Z,98139.34
2024-02-03T03:08:41.710Z,98172.00
2024-02-03T03:11:10.640Z,98167.53
2024-02-03T03:13:37.518Z,98155.94
2024-02-03T03:16:04.953Z,98157.53
2024-02-03T03:18:31.961Z,98167.06
2024-02-03T03:21:00.066Z,98163.94
2024-02-03T03:23:26.982Z,98169.91
2024-02-03T03:25:57.670Z,98163.34
2024-02-03T03:28:24.456Z,98166.50
2024-02-03T03:30:51.398Z,98164.75
2024-02-03T03:33:18.360Z,98157.50
2024-02-03T03:35:45.315Z,98169.88
2024-02-03T03:38:14.994Z,98170.75
2024-02-03T03:40:41.791Z,98174.00
2024-02-03T03:43:08.593Z,98172.66
2024-02-03T03:45:35.725Z,98191.41
2024-02-03T03:48:02.787Z,98169.50
2024-02-03T03:50:29.588Z,98195.25
2024-02-03T03:52:56.403Z,98186.78
2024-02-03T03:55:23.199Z,98181.94
2024-02-03T03:57:50.130Z,98196.41
2024-02-03T04:00:17.985Z,98186.31
2024-02-03T04:02:44.816Z,98186.31
2024-02-03T04:05:11.577Z,98182.63
2024-02-03T04:07:38.472Z,98186.16
2024-02-03T04:10:05.659Z,98185.09
2024-02-03T04:12:32.666Z,98191.16
2024-02-03T04:14:59.704Z,98170.44
2024-02-03T04:17:26.603Z,98179.78
2024-02-03T04:19:53.633Z,98173.44
2024-02-03T04:22:21.138Z,98170.88
2024-02-03T04:24:47.973Z,98183.63
2024-02-03T04:27:14.876Z,98170.03
2024-02-03T04:29:41.973Z,98165.91
2024-02-03T04:32:09.072Z,98174.44
2024-02-03T04:34:36.064Z,98173.63
2024-02-03T04:37:02.974Z,98179.72
2024-02-03T04:39:30.564Z,98179.66
2024-02-03T04:41:57.693Z,98178.94
2024-02-03T04:44:24.477Z,98173.34
2024-02-03T04:46:51.675Z,98181.31
2024-02-03T04:49:18.694Z,98177.88
2024-02-03T04:51:45.655Z,98169.13
2024-02-03T04:54:13.494Z,98159.00
2024-02-03T04:56:40.316Z,98152.47
2024-02-03T04:59:07.126Z,98155.50
2024-02-03T05:01:35.807Z,98146.97
2024-02-03T05:04:02.929Z,98154.00
2024-02-03T05:06:29.913Z,98141.88
2024-02-03T05:08:59.993Z,98156.44
2024-02-03T05:11:27.156Z,98156.50
2024-02-03T05:13:54.171Z,98159.75
2024-02-03T05:16:20.930Z,98173.56
2024-02-03T05:18:47.874Z,98165.47
2024-02-03T05:21:15.572Z,98173.44
2024-02-03T05:23:42.469Z,98159.56
2024-02-03T05:26:09.981Z,98181.06
2024-02-03T05:28:36.812Z,98175.03
2024-02-03T05:31:03.673Z,98170.63
2024-02-03T05:33:31.942Z,98183.50
2024-02-03T05:35:59.298Z,98172.31
2024-02-03T05:38:26.182Z,98177.13
2024-02-03T05:40:53.327Z,98186.75
2024-02-03T05:43:20.108Z,98168.84
2024-02-03T05:45:46.961Z,98182.22
2024-02-03T05:48:13.944Z,98180.56
2024-02-03T05:50:40.773Z,98176.44
2024-02-03T05:53:08.952Z,98155.84
2024-02-03T05:55:35.919Z,98164.31
2024-02-03T05:58:02.804Z,98171.97
2024-02-03T06:00:29.685Z,98157.41
2024-02-03T06:03:00.262Z,98173.91
2024-02-03T06:05:27.389Z,98191.75
2024-02-03T06:07:54.293Z,98208.84
2024-02-03T06:10:21.471Z,98191.25
2024-02-03T06:12:48.368Z,98177.34
2024-02-03T06:15:15.298Z,98195.25
2024-02-03T06:17:42.284Z,98187.22
2024-02-03T06:20:10.023Z,98183.47
2024-02-03T06:22:36.959Z,98196.97
2024-02-03T06:25:03.962Z,98197.72
2024-02-03T06:27:30.791Z,98189.47
2024-02-03T06:29:57.587Z,98179.38
2024-02-03T06:32:24.506Z,98194.81
2024-02-03T06:34:51.624Z,98191.38
2024-02-03T06:37:18.492Z,98217.38
2024-02-03T06:39:45.336Z,98219.97
2024-02-03T06:42:12.332Z,98214.75
2024-02-03T06:44:39.155Z,98229.13
2024-02-03T06:47:06.150Z,98231.81
2024-02-03T06:49:33.073Z,98208.66
2024-02-03T06:52:00.225Z,98221.81
2024-02-03T06:54:27.187Z,98224.44
2024-02-03T06:56:54.097Z,98221.06
2024-02-03T06:59:20.971Z,98216.72
2024-02-03T07:01:47.824Z,98224.25
2024-02-03T07:04:15.064Z,98204.16
2024-02-03T07:06:42.009Z,98224.53
2024-02-03T07:09:09.627Z,98229.81
2024-02-03T07:11:36.516Z,98196.38
2024-02-03T07:14:03.770Z,98209.78
2024-02-03T07:16:30.587Z,98223.88
2024-02-03T07:18:58.797Z,98210.13
2024-02-03T07:21:25.808Z,98223.97
2024-02-03T07:23:52.785Z,98220.25
2024-02-03T07:26:19.621Z,98223.00
2024-02-03T07:28:46.421Z,98208.94
2024-02-03T07:31:13.274Z,98230.69
2024-02-03T07:33:40.192Z,98233.22
2024-02-03T07:36:07.510Z,98224.09
2024-02-03T07:38:34.331Z,98223.72
2024-02-03T07:41:01.190Z,98230.72
2024-02-03T07:43:28.090Z,98236.50
2024-02-03T07:45:54.948Z,98228.44
2024-02-03T07:48:21.979Z,98238.53
2024-02-03T07:50:48.923Z,98223.94
2024-02-03T07:53:15.738Z,98255.47
2024-02-03T07:55:42.539Z,98221.81
2024-02-03T07:58:09.450Z,98235.94
2024-02-03T08:00:36.424Z,98240.34
2024-02-03T08:03:03.599Z,98242.09
2024-02-03T08:05:31.093Z,98232.34
2024-02-03T08:07:57.911Z,98237.75
2024-02-03T08:10:24.694Z,98241.13
2024-02-03T08:12:51.976Z,98241.59
2024-02-03T08:15:19.556Z,98223.66
2024-02-03T08:17:46.757Z,98237.63
2024-02-03T08:20:13.762Z,98241.25
2024-02-03T08:22:40.631Z,98235.06
2024-02-03T08:25:08.272Z,98224.66
2024-02-03T08:27:35.205Z,98238.59
2024-02-03T08:30:02.049Z,98231.00
2024-02-03T08:32:28.947Z,98226.19
2024-02-03T08:37:25.757Z,98228.66
2024-02-03T08:39:52.622Z,98219.78
2024-02-03T08:42:20.999Z,98227.22
2024-02-03T08:44:47.982Z,98245.66
2024-02-03T08:47:15.731Z,98243.97
2024-02-03T08:49:53.346Z,98225.38
2024-02-03T08:52:21.090Z,98212.84
2024-02-03T08:54:47.988Z,98212.75
2024-02-03T08:57:14.944Z,98206.72
2024-02-03T08:59:41.844Z,98231.81
2024-02-03T09:02:08.678Z,98224.91
2024-02-03T09:04:35.585Z,98205.78
2024-02-03T09:07:02.437Z,98190.78
2024-02-03T09:09:29.241Z,98215.19
2024-02-03T09:11:56.088Z,98207.81
2024-02-03T09:14:22.948Z,98204.38
2024-02-03T09:16:49.755Z,98192.06
2024-02-03T09:19:16.822Z,98188.53
2024-02-03T09:21:43.884Z,98204.84
2024-02-03T09:24:10.965Z,98200.47
2024-02-03T09:26:41.165Z,98207.25
2024-02-03T09:29:11.338Z,98209.06
2024-02-03T09:31:38.185Z,98205.63
2024-02-03T09:34:06.319Z,98202.56
2024-02-03T09:36:33.776Z,98212.31
2024-02-03T09:39:01.070Z,98221.53
2024-02-03T09:41:30.232Z,98225.97
2024-02-03T09:43:59.418Z,98217.84
2024-02-03T09:46:26.389Z,98204.78
2024-02-03T09:48:53.532Z,98209.97
2024-02-03T09:51:21.067Z,98208.44
2024-02-03T09:53:48.506Z,98204.88
2024-02-03T09:56:15.341Z,98205.06
2024-02-03T09:58:42.869Z,98200.34
2024-02-03T10:01:10.040Z,98199.00
2024-02-03T10:03:42.644Z,98193.22
2024-02-03T10:06:11.571Z,98203.69
2024-02-03T10:08:38.542Z,98221.34
2024-02-03T10:11:05.584Z,98219.16
2024-02-03T10:13:34.376Z,98206.13
2024-02-03T10:16:03.552Z,98208.91
2024-02-03T10:18:34.790Z,98211.53
2024-02-03T10:21:02.878Z,98201.16
2024-02-03T10:23:30.924Z,98210.94
2024-02-03T10:26:01.614Z,98213.56
2024-02-03T10:28:29.068Z,98201.31
2024-02-03T10:31:01.846Z,98200.84
2024-02-03T10:33:29.120Z,98192.84
2024-02-03T10:35:58.369Z,98192.56
2024-02-03T10:38:25.302Z,98189.44
2024-02-03T10:40:53.415Z,98200.16
2024-02-03T10:43:23.698Z,98196.00
2024-02-03T10:45:54.954Z,98191.53
2024-02-03T10:48:26.770Z,98196.28
2024-02-03T10:50:59.223Z,98181.94
2024-02-03T10:53:31.407Z,98175.13
2024-02-03T10:56:04.634Z,98172.75
2024-02-03T10:58:33.031Z,98176.88
2024-02-03T11:01:11.509Z,98174.78
2024-02-03T11:03:41.330Z,98185.53
2024-02-03T11:06:09.290Z,98176.25
2024-02-03T11:08:36.943Z,98189.34
2024-02-03T11:11:03.876Z,98181.88
2024-02-03T11:13:31.641Z,98163.47
2024-02-03T11:15:59.789Z,98152.94
2024-02-03T11:18:28.912Z,98161.94
2024-02-03T11:21:09.059Z,98154.44
2024-02-03T11:23:36.797Z,98152.00
2024-02-03T11:26:03.807Z,98159.31
2024-02-03T11:28:34.851Z,98161.44
2024-02-03T11:31:02.899Z,98164.59
2024-02-03T11:33:32.427Z,98152.78
2024-02-03T11:36:03.991Z,98147.19
2024-02-03T11:38:30.809Z,98146.03
2024-02-03T11:41:00.881Z,98136.38
2024-02-03T11:43:29.397Z,98138.63
2024-02-03T11:46:02.755Z,98136.06
2024-02-03T11:48:29.996Z,98127.91
2024-02-03T11:50:57.186Z,98130.28
2024-02-03T11:53:27.666Z,98139.06
2024-02-03T11:55:55.484Z,98145.25
2024-02-03T11:58:22.497Z,98136.75
2024-02-03T12:00:49.573Z,98126.63
2024-02-03T12:03:16.642Z,98130.69
2024-02-03T12:05:45.282Z,98141.84
2024-02-03T12:08:12.781Z,98134.09
2024-02-03T12:10:39.788Z,98126.25
2024-02-03T12:13:07.536Z,98118.72
2024-02-03T12:15:35.205Z,98109.44
2024-02-03T12:18:03.247Z,98100.19
2024-02-03T12:20:30.269Z,98103.59
2024-02-03T12:22:57.556Z,98102.81
2024-02-03T12:25:24.402Z,98107.72
2024-02-03T12:27:51.711Z,98106.28
2024-02-03T12:30:20.144Z,98111.00
2024-02-03T12:32:47.852Z,98093.53
2024-02-03T12:35:16.122Z,98095.59
2024-02-03T12:37:43.387Z,98098.56
2024-02-03T12:40:11.588Z,98092.13
2024-02-03T12:42:38.578Z,98092.38
2024-02-03T12:45:07.384Z,98097.09
2024-02-03T12:47:37.416Z,98080.53
2024-02-03T12:50:04.873Z,98071.00
2024-02-03T12:52:32.016Z,98079.03
2024-02-03T12:54:58.894Z,98069.31
2024-02-03T12:57:25.838Z,98064.75
2024-02-03T12:59:52.745Z,98071.56
2024-02-03T13:02:19.915Z,98075.50
2024-02-03T13:04:49.177Z,98060.38
2024-02-03T13:07:16.775Z,98076.03
2024-02-03T13:09:44.303Z,98057.78
2024-02-03T13:12:11.270Z,98053.16
2024-02-03T13:14:38.266Z,98050.50
2024-02-03T13:17:05.562Z,98052.63
2024-02-03T13:19:32.492Z,98049.88
2024-02-03T13:22:00.195Z,98056.75
2024-02-03T13:24:27.233Z,98059.31
2024-02-03T13:26:54.135Z,98053.94
2024-02-03T13:29:21.007Z,98056.53
2024-02-03T13:31:48.081Z,98053.59
2024-02-03T13:34:18.708Z,98061.50
2024-02-03T13:36:47.853Z,98061.69
2024-02-03T13:39:18.085Z,98035.47
2024-02-03T13:41:44.942Z,98043.47
2024-02-03T13:44:11.742Z,98040.38
2024-02-03T13:46:38.563Z,98051.13
2024-02-03T13:49:05.995Z,98040.06
2024-02-03T13:51:35.788Z,98047.38
2024-02-03T13:54:03.610Z,98046.56
2024-02-03T13:56:30.514Z,98044.91
2024-02-03T13:58:57.470Z,98041.59
2024-02-03T14:01:27.273Z,98035.72
2024-02-03T14:03:54.366Z,98033.44
2024-02-03T14:06:21.257Z,98034.13
2024-02-03T14:08:48.091Z,98039.25
2024-02-03T14:11:16.016Z,98034.78
2024-02-03T14:13:43.161Z,98019.00
2024-02-03T14:16:11.374Z,98020.97
2024-02-03T14:18:38.429Z,98028.09
2024-02-03T14:21:05.516Z,98023.44
2024-02-03T14:23:35.190Z,98022.28
2024-02-03T14:26:06.326Z,98022.13
2024-02-03T14:28:34.366Z,98034.56
2024-02-03T14:31:01.446Z,98029.66
2024-02-03T14:33:28.938Z,98034.00
2024-02-03T14:35:56.127Z,98025.78
2024-02-03T14:38:23.615Z,98015.53
2024-02-03T14:40:51.026Z,98020.84
2024-02-03T14:43:17.892Z,98035.84
2024-02-03T14:45:44.786Z,98024.34
2024-02-03T14:48:11.672Z,98018.91
2024-02-03T14:50:38.522Z,98025.44
2024-02-03T14:53:06.428Z,98031.69
2024-02-03T14:55:33.260Z,98026.28
2024-02-03T14:58:00.061Z,98028.81
2024-02-03T15:00:26.921Z,98020.16
2024-02-03T15:02:53.760Z,98022.31
2024-02-03T15:05:20.654Z,98029.63
2024-02-03T15:07:48.284Z,98020.25
2024-02-03T15:10:15.297Z,98023.63
2024-02-03T15:12:42.143Z,98034.06
2024-02-03T15:15:09.468Z,98026.94
2024-02-03T15:17:36.670Z,98025.84
2024-02-03T15:20:03.930Z,98021.19
2024-02-03T15:22:31.090Z,98020.78
2024-02-03T15:24:58.079Z,98026.19
2024-02-03T15:27:25.063Z,98027.03
2024-02-03T15:29:51.958Z,98031.59
2024-02-03T15:32:20.657Z,98020.44
2024-02-03T15:34:47.712Z,98028.19
2024-02-03T15:37:14.695Z,98045.94
2024-02-03T15:39:42.166Z,98042.28
2024-02-03T15:42:09.155Z,98052.31
2024-02-03T15:44:41.955Z,98043.69
2024-02-03T15:47:14.161Z,98043.94
2024-02-03T15:49:42.111Z,98048.69
2024-02-03T15:52:09.108Z,98055.00
2024-02-03T15:54:35.992Z,98067.81
2024-02-03T15:57:03.012Z,98078.91
2024-02-03T15:59:29.851Z,98067.00
2024-02-03T16:01:56.823Z,98078.09
2024-02-03T16:04:24.245Z,98073.41
2024-02-03T16:06:51.747Z,98069.78
2024-02-03T16:09:18.801Z,98077.66
2024-02-03T16:11:45.861Z,98079.06
2024-02-03T16:14:12.750Z,98070.44
2024-02-03T16:16:39.694Z,98090.25
2024-02-03T16:19:06.660Z,98089.25
2024-02-03T16:21:33.630Z,98096.38
2024-02-03T16:24:01.101Z,98096.25
2024-02-03T16:26:28.246Z,98082.09
2024-02-03T16:28:55.351Z,98093.00
2024-02-03T16:31:22.273Z,98097.88
2024-02-03T16:33:49.297Z,98105.22
2024-02-03T16:36:16.260Z,98090.78
2024-02-03T16:38:43.072Z,98105.63
2024-02-03T16:41:09.852Z,98105.09
2024-02-03T16:43:36.672Z,98103.09
2024-02-03T16:46:03.590Z,98104.41
2024-02-03T16:48:30.462Z,98105.34
2024-02-03T16:50:57.368Z,98113.84
2024-02-03T16:53:24.149Z,98110.22
2024-02-03T16:55:51.052Z,98113.25
2024-02-03T16:58:17.820Z,98108.81
2024-02-03T17:00:44.705Z,98116.97
2024-02-03T17:03:11.979Z,98113.75
2024-02-03T17:05:41.783Z,98106.31
2024-02-03T17:08:10.517Z,98112.91
2024-02-03T17:10:37.319Z,98126.09
2024-02-03T17:13:04.403Z,98116.00
2024-02-03T17:15:31.332Z,98122.19
2024-02-03T17:17:58.388Z,98129.78
2024-02-03T17:20:27.308Z,98122.00
2024-02-03T17:22:54.492Z,98129.22
2024-02-03T17:25:21.687Z,98135.78
2024-02-03T17:27:49.140Z,98121.47
2024-02-03T17:30:16.785Z,98122.19
2024-02-03T17:32:43.708Z,98123.72
2024-02-03T17:35:10.613Z,98135.56
2024-02-03T17:37:37.580Z,98140.94
2024-02-03T17:40:04.684Z,98130.56
2024-02-03T17:42:31.513Z,98134.53
2024-02-03T17:44:58.641Z,98130.53
2024-02-03T17:47:26.365Z,98150.41
2024-02-03T17:49:53.380Z,98145.47
2024-02-03T17:52:20.242Z,98141.69
2024-02-03T17:54:48.979Z,98148.47
2024-02-03T17:57:15.951Z,98146.75
2024-02-03T17:59:42.945Z,98161.19
2024-02-03T18:02:09.993Z,98162.75
2024-02-03T18:04:36.890Z,98158.31
2024-02-03T18:07:04.099Z,98158.97
2024-02-03T18:09:30.963Z,98173.81
2024-02-03T18:11:57.740Z,98175.09
2024-02-03T18:14:24.771Z,98174.72
2024-02-03T18:16:51.614Z,98181.44
2024-02-03T18:19:18.518Z,98180.13
2024-02-03T18:21:45.438Z,98169.59
2024-02-03T18:24:12.282Z,98189.19
2024-02-03T18:26:39.102Z,98199.00
2024-02-03T18:29:05.990Z,98201.25
2024-02-03T18:31:32.892Z,98199.94
2024-02-03T18:33:59.880Z,98209.97
2024-02-03T18:36:26.803Z,98206.59
2024-02-03T18:38:53.675Z,98205.78
2024-02-03T18:41:20.544Z,98207.25
2024-02-03T18:43:47.325Z,98202.19
2024-02-03T18:46:14.177Z,98201.50
2024-02-03T18:48:41.516Z,98209.13
2024-02-03T18:51:08.549Z,98209.59
2024-02-03T18:53:35.708Z,98198.19
2024-02-03T18:56:02.557Z,98206.94
2024-02-03T18:58:30.295Z,98218.34
2024-02-03T19:00:57.848Z,98222.91
2024-02-03T19:03:24.864Z,98220.38
2024-02-03T19:05:51.768Z,98215.28
2024-02-03T19:08:18.821Z,98199.25
2024-02-03T19:10:45.638Z,98202.19
2024-02-03T19:13:12.478Z,98202.00
2024-02-03T19:15:39.452Z,98205.44
2024-02-03T19:18:08.511Z,98213.94
2024-02-03T19:20:35.427Z,98226.19
2024-02-03T19:23:02.233Z,98228.34
2024-02-03T19:25:29.125Z,98224.91
2024-02-03T19:27:57.122Z,98225.00
2024-02-03T19:30:24.116Z,98231.38
2024-02-03T19:32:50.926Z,98233.22
2024-02-03T19:35:18.911Z,98237.59
2024-02-03T19:37:45.727Z,98249.75
2024-02-03T19:40:13.320Z,98248.59
2024-02-03T19:42:42.572Z,98245.72
2024-02-03T19:45:10.137Z,98251.34
2024-02-03T19:47:37.039Z,98246.47
2024-02-03T19:50:05.730Z,98245.91
2024-02-03T19:52:33.437Z,98249.50
2024-02-03T19:55:00.408Z,98246.31
2024-02-03T19:57:27.339Z,98244.97
2024-02-03T19:59:54.319Z,98240.78
2024-02-03T20:02:21.165Z,98256.56
2024-02-03T20:04:48.250Z,98244.78
2024-02-03T20:07:16.090Z,98249.00
2024-02-03T20:09:43.611Z,98255.19
2024-02-03T20:12:10.678Z,98253.69
2024-02-03T20:14:39.737Z,98250.19
2024-02-03T20:17:06.573Z,98248.84
2024-02-03T20:19:33.651Z,98254.94
2024-02-03T20:22:00.842Z,98254.88
2024-02-03T20:24:28.985Z,98266.97
2024-02-03T20:26:56.388Z,98270.13
2024-02-03T20:29:23.345Z,98261.00
2024-02-03T20:31:50.220Z,98265.09
2024-02-03T20:34:19.015Z,98276.53
2024-02-03T20:36:47.577Z,98274.69
2024-02-03T20:39:15.421Z,98271.00
2024-02-03T20:41:45.722Z,98273.28
2024-02-03T20:44:14.277Z,98274.03
2024-02-03T20:46:41.454Z,98271.91
2024-02-03T20:49:08.565Z,98284.28
2024-02-03T20:51:35.683Z,98275.84
2024-02-03T20:54:02.618Z,98265.53
2024-02-03T20:56:29.409Z,98275.84
2024-02-03T20:58:56.320Z,98287.19
2024-02-03T21:01:24.199Z,98272.84
2024-02-03T21:03:51.295Z,98267.31
2024-02-03T21:06:18.907Z,98272.53
2024-02-03T21:08:45.871Z,98271.75
2024-02-03T21:11:13.068Z,98262.63
2024-02-03T21:13:40.461Z,98258.06
2024-02-03T21:16:07.919Z,98261.84
2024-02-03T21:18:34.847Z,98266.63
2024-02-03T21:21:02.071Z,98260.25
2024-02-03T21:23:29.020Z,98256.38
2024-02-03T21:25:56.002Z,98272.22
2024-02-03T21:28:22.833Z,98263.53
2024-02-03T21:30:49.788Z,98262.09
2024-02-03T21:33:16.805Z,98248.56
2024-02-03T21:35:43.782Z,98259.03
2024-02-03T21:38:10.664Z,98263.28
2024-02-03T21:40:37.553Z,98261.16
2024-02-03T21:43:05.066Z,98255.19
2024-02-03T21:45:32.063Z,98250.28
2024-02-03T21:47:59.214Z,98250.34
2024-02-03T21:50:26.155Z,98254.78
2024-02-03T21:52:52.992Z,98260.44
2024-02-03T21:55:19.840Z,98253.88
2024-02-03T21:57:46.675Z,98261.84
2024-02-03T22:00:14.087Z,98254.19
2024-02-03T22:02:40.893Z,98242.72
2024-02-03T22:05:08.775Z,98248.38
2024-02-03T22:07:35.706Z,98259.78
2024-02-03T22:10:02.705Z,98253.97
2024-02-03T22:12:30.322Z,98241.75
2024-02-03T22:14:57.161Z,98245.06
2024-02-03T22:17:23.983Z,98244.50
2024-02-03T22:19:51.054Z,98247.66
2024-02-03T22:22:17.913Z,98244.13
2024-02-03T22:24:44.845Z,98244.69
2024-02-03T22:27:11.664Z,98240.31
2024-02-03T22:29:38.463Z,98247.56
2024-02-03T22:32:05.662Z,98238.69
2024-02-03T22:34:32.659Z,98246.69
2024-02-03T22:36:59.655Z,98241.94
2024-02-03T22:39:26.557Z,98238.94
2024-02-03T22:41:58.152Z,98243.91
2024-02-03T22:44:25.141Z,98241.16
2024-02-03T22:46:51.995Z,98241.16
2024-02-03T22:49:18.830Z,98243.69
2024-02-03T22:51:45.690Z,98242.56
2024-02-03T22:54:12.563Z,98237.59
2024-02-03T22:56:39.375Z,98237.53
2024-02-03T22:59:06.203Z,98242.09
2024-02-03T23:01:34.014Z,98250.00
2024-02-03T23:04:01.074Z,98246.53
2024-02-03T23:06:31.309Z,98247.53
2024-02-03T23:08:59.233Z,98243.28
2024-02-03T23:11:27.918Z,98245.97
2024-02-03T23:13:54.752Z,98246.16
2024-02-03T23:16:21.587Z,98235.69
2024-02-03T23:18:48.504Z,98222.06
2024-02-03T23:21:17.129Z,98222.72
2024-02-03T23:23:44.353Z,98220.28
2024-02-03T23:26:11.776Z,98219.31
2024-02-03T23:28:39.233Z,98218.13
2024-02-03T23:31:06.251Z,98196.63
2024-02-03T23:33:37.578Z,98195.63
2024-02-03T23:36:05.150Z,98167.47
2024-02-03T23:38:32.063Z,98157.53
2024-02-03T23:40:59.769Z,98157.66
2024-02-03T23:43:27.384Z,98156.06
2024-02-03T23:45:54.297Z,98157.38
2024-02-03T23:48:21.368Z,98159.47
2024-02-03T23:50:48.498Z,98176.72
2024-02-03T23:53:16.417Z,98173.66
2024-02-03T23:55:43.861Z,98179.81
2024-02-03T23:58:10.855Z,98175.69
